sensor_id;sensor_type;location;lat;lon;timestamp;P1;durP1;ratioP1;P2;durP2;ratioP2
20653;SDS011;21083;50.898;4.902;2023-06-04T00:00:51;4.95;;;1.40;;
20653;SDS011;21083;50.898;4.902;2023-06-04T00:03:18;5.88;;;1.20;;
20653;SDS011;21083;50.898;4.902;2023-06-04T00:05:45;2.33;;;0.80;;
20653;SDS011;21083;50.898;4.902;2023-06-04T00:08:12;3.60;;;1.20;;
20653;SDS011;21083;50.898;4.902;2023-06-04T00:10:39;7.95;;;1.10;;
20653;SDS011;21083;50.898;4.902;2023-06-04T00:13:07;3.58;;;1.00;;
20653;SDS011;21083;50.898;4.902;2023-06-04T00:15:34;7.10;;;0.90;;
20653;SDS011;21083;50.898;4.902;2023-06-04T00:18:01;3.60;;;1.02;;
20653;SDS011;21083;50.898;4.902;2023-06-04T00:20:28;6.63;;;1.23;;
20653;SDS011;21083;50.898;4.902;2023-06-04T00:22:54;7.35;;;1.40;;
20653;SDS011;21083;50.898;4.902;2023-06-04T00:25:21;4.18;;;1.25;;
20653;SDS011;21083;50.898;4.902;2023-06-04T00:27:48;4.07;;;1.00;;
20653;SDS011;21083;50.898;4.902;2023-06-04T00:30:17;2.40;;;0.90;;
20653;SDS011;21083;50.898;4.902;2023-06-04T00:32:43;2.70;;;0.95;;
20653;SDS011;21083;50.898;4.902;2023-06-04T00:35:12;4.00;;;1.20;;
20653;SDS011;21083;50.898;4.902;2023-06-04T00:37:39;3.63;;;1.02;;
20653;SDS011;21083;50.898;4.902;2023-06-04T00:40:06;4.93;;;1.20;;
20653;SDS011;21083;50.898;4.902;2023-06-04T00:42:34;6.82;;;1.33;;
20653;SDS011;21083;50.898;4.902;2023-06-04T00:45:01;3.25;;;1.10;;
20653;SDS011;21083;50.898;4.902;2023-06-04T00:47:30;4.10;;;1.30;;
20653;SDS011;21083;50.898;4.902;2023-06-04T00:49:58;5.15;;;1.52;;
20653;SDS011;21083;50.898;4.902;2023-06-04T00:52:25;8.88;;;1.40;;
20653;SDS011;21083;50.898;4.902;2023-06-04T00:54:52;5.75;;;1.58;;
20653;SDS011;21083;50.898;4.902;2023-06-04T00:57:20;3.50;;;1.20;;
20653;SDS011;21083;50.898;4.902;2023-06-04T00:59:47;7.47;;;1.73;;
20653;SDS011;21083;50.898;4.902;2023-06-04T01:02:16;5.25;;;1.08;;
20653;SDS011;21083;50.898;4.902;2023-06-04T01:04:49;4.78;;;1.10;;
20653;SDS011;21083;50.898;4.902;2023-06-04T01:07:20;5.05;;;1.48;;
20653;SDS011;21083;50.898;4.902;2023-06-04T01:09:49;7.00;;;1.40;;
20653;SDS011;21083;50.898;4.902;2023-06-04T01:12:16;3.05;;;1.40;;
20653;SDS011;21083;50.898;4.902;2023-06-04T01:14:43;8.20;;;1.60;;
20653;SDS011;21083;50.898;4.902;2023-06-04T01:17:11;6.68;;;1.52;;
20653;SDS011;21083;50.898;4.902;2023-06-04T01:22:42;3.33;;;1.10;;
20653;SDS011;21083;50.898;4.902;2023-06-04T01:25:14;6.88;;;1.50;;
20653;SDS011;21083;50.898;4.902;2023-06-04T01:27:45;6.82;;;1.38;;
20653;SDS011;21083;50.898;4.902;2023-06-04T01:30:15;5.60;;;1.50;;
20653;SDS011;21083;50.898;4.902;2023-06-04T01:32:43;7.22;;;1.23;;
20653;SDS011;21083;50.898;4.902;2023-06-04T01:35:13;6.28;;;1.40;;
20653;SDS011;21083;50.898;4.902;2023-06-04T01:37:39;4.93;;;1.88;;
20653;SDS011;21083;50.898;4.902;2023-06-04T01:40:07;3.40;;;1.30;;
20653;SDS011;21083;50.898;4.902;2023-06-04T01:42:34;5.28;;;1.50;;
20653;SDS011;21083;50.898;4.902;2023-06-04T01:45:01;7.85;;;1.27;;
20653;SDS011;21083;50.898;4.902;2023-06-04T01:47:28;4.63;;;1.33;;
20653;SDS011;21083;50.898;4.902;2023-06-04T01:49:55;6.65;;;1.48;;
20653;SDS011;21083;50.898;4.902;2023-06-04T01:52:23;7.40;;;1.48;;
20653;SDS011;21083;50.898;4.902;2023-06-04T01:54:50;6.18;;;1.55;;
20653;SDS011;21083;50.898;4.902;2023-06-04T01:57:17;6.28;;;1.75;;
20653;SDS011;21083;50.898;4.902;2023-06-04T01:59:45;6.93;;;1.70;;
20653;SDS011;21083;50.898;4.902;2023-06-04T02:02:12;3.45;;;1.20;;
20653;SDS011;21083;50.898;4.902;2023-06-04T02:04:40;5.25;;;1.83;;
20653;SDS011;21083;50.898;4.902;2023-06-04T02:07:08;5.10;;;1.48;;
20653;SDS011;21083;50.898;4.902;2023-06-04T02:09:36;9.05;;;1.80;;
20653;SDS011;21083;50.898;4.902;2023-06-04T02:12:03;4.18;;;1.50;;
20653;SDS011;21083;50.898;4.902;2023-06-04T02:14:31;3.58;;;1.30;;
20653;SDS011;21083;50.898;4.902;2023-06-04T02:16:58;5.10;;;1.92;;
20653;SDS011;21083;50.898;4.902;2023-06-04T02:19:25;8.00;;;1.90;;
20653;SDS011;21083;50.898;4.902;2023-06-04T02:21:52;4.45;;;1.67;;
20653;SDS011;21083;50.898;4.902;2023-06-04T02:24:19;5.13;;;1.77;;
20653;SDS011;21083;50.898;4.902;2023-06-04T02:26:47;5.32;;;1.80;;
20653;SDS011;21083;50.898;4.902;2023-06-04T02:29:14;7.15;;;1.80;;
20653;SDS011;21083;50.898;4.902;2023-06-04T02:31:41;8.88;;;1.60;;
20653;SDS011;21083;50.898;4.902;2023-06-04T02:34:08;4.80;;;1.77;;
20653;SDS011;21083;50.898;4.902;2023-06-04T02:36:35;4.07;;;1.60;;
20653;SDS011;21083;50.898;4.902;2023-06-04T02:39:02;5.97;;;1.55;;
20653;SDS011;21083;50.898;4.902;2023-06-04T02:41:29;6.88;;;1.83;;
20653;SDS011;21083;50.898;4.902;2023-06-04T02:43:57;9.93;;;1.83;;
20653;SDS011;21083;50.898;4.902;2023-06-04T02:46:24;4.72;;;1.70;;
20653;SDS011;21083;50.898;4.902;2023-06-04T02:48:51;6.07;;;1.67;;
20653;SDS011;21083;50.898;4.902;2023-06-04T02:51:18;7.07;;;1.83;;
20653;SDS011;21083;50.898;4.902;2023-06-04T02:53:44;6.18;;;2.00;;
20653;SDS011;21083;50.898;4.902;2023-06-04T02:56:11;5.28;;;1.92;;
20653;SDS011;21083;50.898;4.902;2023-06-04T02:58:48;5.53;;;2.17;;
20653;SDS011;21083;50.898;4.902;2023-06-04T03:01:18;8.77;;;1.95;;
20653;SDS011;21083;50.898;4.902;2023-06-04T03:03:45;5.20;;;1.90;;
20653;SDS011;21083;50.898;4.902;2023-06-04T03:06:13;5.60;;;1.90;;
20653;SDS011;21083;50.898;4.902;2023-06-04T03:08:40;5.10;;;1.85;;
20653;SDS011;21083;50.898;4.902;2023-06-04T03:11:07;4.18;;;1.73;;
20653;SDS011;21083;50.898;4.902;2023-06-04T03:13:34;7.65;;;1.95;;
20653;SDS011;21083;50.898;4.902;2023-06-04T03:16:02;6.75;;;2.03;;
20653;SDS011;21083;50.898;4.902;2023-06-04T03:18:36;9.00;;;2.22;;
20653;SDS011;21083;50.898;4.902;2023-06-04T03:21:03;5.88;;;2.13;;
20653;SDS011;21083;50.898;4.902;2023-06-04T03:23:30;8.38;;;2.00;;
20653;SDS011;21083;50.898;4.902;2023-06-04T03:25:58;5.13;;;1.67;;
20653;SDS011;21083;50.898;4.902;2023-06-04T03:28:25;5.15;;;2.10;;
20653;SDS011;21083;50.898;4.902;2023-06-04T03:30:51;5.30;;;2.00;;
20653;SDS011;21083;50.898;4.902;2023-06-04T03:33:18;12.05;;;2.17;;
20653;SDS011;21083;50.898;4.902;2023-06-04T03:35:47;6.50;;;1.80;;
20653;SDS011;21083;50.898;4.902;2023-06-04T03:38:14;8.65;;;2.00;;
20653;SDS011;21083;50.898;4.902;2023-06-04T03:40:41;8.10;;;2.38;;
20653;SDS011;21083;50.898;4.902;2023-06-04T03:43:08;11.05;;;2.10;;
20653;SDS011;21083;50.898;4.902;2023-06-04T03:45:35;9.40;;;2.67;;
20653;SDS011;21083;50.898;4.902;2023-06-04T03:48:02;7.75;;;2.08;;
20653;SDS011;21083;50.898;4.902;2023-06-04T03:50:29;6.60;;;2.25;;
20653;SDS011;21083;50.898;4.902;2023-06-04T03:52:58;9.10;;;2.30;;
20653;SDS011;21083;50.898;4.902;2023-06-04T03:55:25;14.43;;;3.03;;
20653;SDS011;21083;50.898;4.902;2023-06-04T03:57:52;6.88;;;2.00;;
20653;SDS011;21083;50.898;4.902;2023-06-04T04:00:18;6.10;;;2.22;;
20653;SDS011;21083;50.898;4.902;2023-06-04T04:02:46;6.13;;;2.17;;
20653;SDS011;21083;50.898;4.902;2023-06-04T04:05:14;9.70;;;2.60;;
20653;SDS011;21083;50.898;4.902;2023-06-04T04:07:41;5.25;;;1.88;;
20653;SDS011;21083;50.898;4.902;2023-06-04T04:10:09;7.07;;;1.95;;
20653;SDS011;21083;50.898;4.902;2023-06-04T04:12:36;5.75;;;2.38;;
20653;SDS011;21083;50.898;4.902;2023-06-04T04:15:03;7.90;;;2.17;;
20653;SDS011;21083;50.898;4.902;2023-06-04T04:17:31;6.07;;;2.20;;
20653;SDS011;21083;50.898;4.902;2023-06-04T04:19:58;6.30;;;2.10;;
20653;SDS011;21083;50.898;4.902;2023-06-04T04:22:26;8.20;;;2.25;;
20653;SDS011;21083;50.898;4.902;2023-06-04T04:24:53;6.90;;;2.20;;
20653;SDS011;21083;50.898;4.902;2023-06-04T04:27:21;5.55;;;2.20;;
20653;SDS011;21083;50.898;4.902;2023-06-04T04:29:48;6.28;;;1.95;;
20653;SDS011;21083;50.898;4.902;2023-06-04T04:32:15;5.30;;;2.20;;
20653;SDS011;21083;50.898;4.902;2023-06-04T04:34:49;6.55;;;2.17;;
20653;SDS011;21083;50.898;4.902;2023-06-04T04:37:17;9.70;;;2.22;;
20653;SDS011;21083;50.898;4.902;2023-06-04T04:39:46;7.07;;;2.35;;
20653;SDS011;21083;50.898;4.902;2023-06-04T04:42:15;5.72;;;2.08;;
20653;SDS011;21083;50.898;4.902;2023-06-04T04:44:43;5.43;;;2.17;;
20653;SDS011;21083;50.898;4.902;2023-06-04T04:47:12;8.75;;;2.10;;
20653;SDS011;21083;50.898;4.902;2023-06-04T04:49:39;8.10;;;2.38;;
20653;SDS011;21083;50.898;4.902;2023-06-04T04:52:06;8.10;;;2.35;;
20653;SDS011;21083;50.898;4.902;2023-06-04T04:54:33;6.68;;;2.20;;
20653;SDS011;21083;50.898;4.902;2023-06-04T04:57:00;6.78;;;2.35;;
20653;SDS011;21083;50.898;4.902;2023-06-04T04:59:27;6.53;;;2.50;;
20653;SDS011;21083;50.898;4.902;2023-06-04T05:01:55;9.48;;;2.17;;
20653;SDS011;21083;50.898;4.902;2023-06-04T05:04:22;9.85;;;2.25;;
20653;SDS011;21083;50.898;4.902;2023-06-04T05:06:49;6.68;;;2.00;;
20653;SDS011;21083;50.898;4.902;2023-06-04T05:09:16;7.60;;;2.30;;
20653;SDS011;21083;50.898;4.902;2023-06-04T05:11:43;10.55;;;2.50;;
20653;SDS011;21083;50.898;4.902;2023-06-04T05:14:10;7.75;;;2.55;;
20653;SDS011;21083;50.898;4.902;2023-06-04T05:16:37;7.28;;;2.28;;
20653;SDS011;21083;50.898;4.902;2023-06-04T05:19:07;10.27;;;2.65;;
20653;SDS011;21083;50.898;4.902;2023-06-04T05:21:36;7.65;;;2.33;;
20653;SDS011;21083;50.898;4.902;2023-06-04T05:24:03;6.65;;;2.50;;
20653;SDS011;21083;50.898;4.902;2023-06-04T05:26:30;9.65;;;2.40;;
20653;SDS011;21083;50.898;4.902;2023-06-04T05:28:58;11.63;;;2.38;;
20653;SDS011;21083;50.898;4.902;2023-06-04T05:31:26;9.93;;;2.53;;
20653;SDS011;21083;50.898;4.902;2023-06-04T05:33:52;8.43;;;2.58;;
20653;SDS011;21083;50.898;4.902;2023-06-04T05:36:21;12.30;;;2.22;;
20653;SDS011;21083;50.898;4.902;2023-06-04T05:38:48;7.88;;;2.35;;
20653;SDS011;21083;50.898;4.902;2023-06-04T05:41:22;7.32;;;2.67;;
20653;SDS011;21083;50.898;4.902;2023-06-04T05:43:49;13.55;;;3.53;;
20653;SDS011;21083;50.898;4.902;2023-06-04T05:46:16;7.10;;;1.98;;
20653;SDS011;21083;50.898;4.902;2023-06-04T05:48:43;6.45;;;2.20;;
20653;SDS011;21083;50.898;4.902;2023-06-04T05:51:10;10.88;;;2.40;;
20653;SDS011;21083;50.898;4.902;2023-06-04T05:53:40;12.82;;;2.80;;
20653;SDS011;21083;50.898;4.902;2023-06-04T05:56:07;5.88;;;2.30;;
20653;SDS011;21083;50.898;4.902;2023-06-04T05:58:34;10.18;;;2.80;;
20653;SDS011;21083;50.898;4.902;2023-06-04T06:01:01;7.47;;;2.50;;
20653;SDS011;21083;50.898;4.902;2023-06-04T06:03:28;6.82;;;2.40;;
20653;SDS011;21083;50.898;4.902;2023-06-04T06:05:55;10.50;;;2.67;;
20653;SDS011;21083;50.898;4.902;2023-06-04T06:08:23;5.30;;;2.22;;
20653;SDS011;21083;50.898;4.902;2023-06-04T06:10:52;8.23;;;2.40;;
20653;SDS011;21083;50.898;4.902;2023-06-04T06:13:18;7.07;;;2.60;;
20653;SDS011;21083;50.898;4.902;2023-06-04T06:15:46;9.70;;;2.63;;
20653;SDS011;21083;50.898;4.902;2023-06-04T06:18:13;8.02;;;2.50;;
20653;SDS011;21083;50.898;4.902;2023-06-04T06:20:40;6.63;;;2.60;;
20653;SDS011;21083;50.898;4.902;2023-06-04T06:23:07;9.65;;;2.67;;
20653;SDS011;21083;50.898;4.902;2023-06-04T06:25:34;7.28;;;2.65;;
20653;SDS011;21083;50.898;4.902;2023-06-04T06:28:02;6.25;;;2.15;;
20653;SDS011;21083;50.898;4.902;2023-06-04T06:30:29;10.43;;;2.50;;
20653;SDS011;21083;50.898;4.902;2023-06-04T06:32:56;7.20;;;2.35;;
20653;SDS011;21083;50.898;4.902;2023-06-04T06:35:23;5.90;;;2.38;;
20653;SDS011;21083;50.898;4.902;2023-06-04T06:37:50;6.88;;;2.50;;
20653;SDS011;21083;50.898;4.902;2023-06-04T06:40:19;8.32;;;2.60;;
20653;SDS011;21083;50.898;4.902;2023-06-04T06:42:47;11.27;;;2.67;;
20653;SDS011;21083;50.898;4.902;2023-06-04T06:45:16;7.75;;;2.58;;
20653;SDS011;21083;50.898;4.902;2023-06-04T06:47:44;8.15;;;2.63;;
20653;SDS011;21083;50.898;4.902;2023-06-04T06:50:10;8.25;;;2.47;;
20653;SDS011;21083;50.898;4.902;2023-06-04T06:52:37;10.23;;;2.42;;
20653;SDS011;21083;50.898;4.902;2023-06-04T06:55:04;7.25;;;2.53;;
20653;SDS011;21083;50.898;4.902;2023-06-04T06:57:32;7.05;;;2.03;;
20653;SDS011;21083;50.898;4.902;2023-06-04T06:59:59;8.35;;;2.30;;
20653;SDS011;21083;50.898;4.902;2023-06-04T07:02:28;8.68;;;2.17;;
20653;SDS011;21083;50.898;4.902;2023-06-04T07:04:55;8.73;;;2.33;;
20653;SDS011;21083;50.898;4.902;2023-06-04T07:07:22;7.93;;;2.67;;
20653;SDS011;21083;50.898;4.902;2023-06-04T07:09:49;5.85;;;1.90;;
20653;SDS011;21083;50.898;4.902;2023-06-04T07:12:16;11.32;;;2.25;;
20653;SDS011;21083;50.898;4.902;2023-06-04T07:14:43;15.77;;;2.53;;
20653;SDS011;21083;50.898;4.902;2023-06-04T07:17:10;9.32;;;2.40;;
20653;SDS011;21083;50.898;4.902;2023-06-04T07:19:38;14.32;;;2.78;;
20653;SDS011;21083;50.898;4.902;2023-06-04T07:22:05;5.30;;;2.17;;
20653;SDS011;21083;50.898;4.902;2023-06-04T07:24:32;7.10;;;2.13;;
20653;SDS011;21083;50.898;4.902;2023-06-04T07:26:59;9.27;;;2.67;;
20653;SDS011;21083;50.898;4.902;2023-06-04T07:29:26;9.88;;;2.40;;
20653;SDS011;21083;50.898;4.902;2023-06-04T07:31:53;8.30;;;2.22;;
20653;SDS011;21083;50.898;4.902;2023-06-04T07:34:20;5.70;;;1.88;;
20653;SDS011;21083;50.898;4.902;2023-06-04T07:36:48;7.45;;;2.15;;
20653;SDS011;21083;50.898;4.902;2023-06-04T07:39:15;6.07;;;2.00;;
20653;SDS011;21083;50.898;4.902;2023-06-04T07:41:42;7.25;;;2.10;;
20653;SDS011;21083;50.898;4.902;2023-06-04T07:44:09;5.80;;;2.10;;
20653;SDS011;21083;50.898;4.902;2023-06-04T07:46:36;10.23;;;2.13;;
20653;SDS011;21083;50.898;4.902;2023-06-04T07:49:03;8.27;;;1.88;;
20653;SDS011;21083;50.898;4.902;2023-06-04T07:51:30;7.35;;;2.30;;
20653;SDS011;21083;50.898;4.902;2023-06-04T07:53:58;6.70;;;2.25;;
20653;SDS011;21083;50.898;4.902;2023-06-04T07:56:25;9.50;;;2.08;;
20653;SDS011;21083;50.898;4.902;2023-06-04T07:58:52;6.00;;;2.17;;
20653;SDS011;21083;50.898;4.902;2023-06-04T08:01:20;6.75;;;1.90;;
20653;SDS011;21083;50.898;4.902;2023-06-04T08:03:49;5.30;;;1.92;;
20653;SDS011;21083;50.898;4.902;2023-06-04T08:06:16;6.47;;;2.10;;
20653;SDS011;21083;50.898;4.902;2023-06-04T08:08:43;7.63;;;2.03;;
20653;SDS011;21083;50.898;4.902;2023-06-04T08:11:12;6.18;;;2.03;;
20653;SDS011;21083;50.898;4.902;2023-06-04T08:13:40;8.93;;;1.52;;
20653;SDS011;21083;50.898;4.902;2023-06-04T08:16:07;8.27;;;2.13;;
20653;SDS011;21083;50.898;4.902;2023-06-04T08:18:37;7.25;;;1.88;;
20653;SDS011;21083;50.898;4.902;2023-06-04T08:21:05;7.70;;;2.28;;
20653;SDS011;21083;50.898;4.902;2023-06-04T08:23:32;8.80;;;1.98;;
20653;SDS011;21083;50.898;4.902;2023-06-04T08:25:59;8.63;;;1.95;;
20653;SDS011;21083;50.898;4.902;2023-06-04T08:28:27;6.47;;;1.83;;
20653;SDS011;21083;50.898;4.902;2023-06-04T08:30:54;7.63;;;2.22;;
20653;SDS011;21083;50.898;4.902;2023-06-04T08:33:21;6.05;;;1.60;;
20653;SDS011;21083;50.898;4.902;2023-06-04T08:35:48;10.93;;;1.90;;
20653;SDS011;21083;50.898;4.902;2023-06-04T08:38:14;8.07;;;1.98;;
20653;SDS011;21083;50.898;4.902;2023-06-04T08:40:41;10.77;;;2.17;;
20653;SDS011;21083;50.898;4.902;2023-06-04T08:43:08;8.57;;;2.22;;
20653;SDS011;21083;50.898;4.902;2023-06-04T08:45:38;10.02;;;2.28;;
20653;SDS011;21083;50.898;4.902;2023-06-04T08:48:06;6.93;;;2.10;;
20653;SDS011;21083;50.898;4.902;2023-06-04T08:50:37;11.18;;;2.42;;
20653;SDS011;21083;50.898;4.902;2023-06-04T08:53:10;7.22;;;2.65;;
20653;SDS011;21083;50.898;4.902;2023-06-04T08:55:40;5.68;;;1.52;;
20653;SDS011;21083;50.898;4.902;2023-06-04T08:58:07;6.97;;;2.03;;
20653;SDS011;21083;50.898;4.902;2023-06-04T09:00:36;5.55;;;1.73;;
20653;SDS011;21083;50.898;4.902;2023-06-04T09:03:05;5.70;;;1.80;;
20653;SDS011;21083;50.898;4.902;2023-06-04T09:05:32;6.20;;;2.03;;
20653;SDS011;21083;50.898;4.902;2023-06-04T09:08:02;8.40;;;1.80;;
20653;SDS011;21083;50.898;4.902;2023-06-04T09:10:34;9.27;;;2.03;;
20653;SDS011;21083;50.898;4.902;2023-06-04T09:13:03;8.25;;;2.40;;
20653;SDS011;21083;50.898;4.902;2023-06-04T09:15:32;7.53;;;1.88;;
20653;SDS011;21083;50.898;4.902;2023-06-04T09:18:01;5.38;;;1.85;;
20653;SDS011;21083;50.898;4.902;2023-06-04T09:20:28;8.98;;;2.20;;
20653;SDS011;21083;50.898;4.902;2023-06-04T09:22:55;13.55;;;2.20;;
20653;SDS011;21083;50.898;4.902;2023-06-04T09:25:22;7.75;;;1.83;;
20653;SDS011;21083;50.898;4.902;2023-06-04T09:27:50;9.60;;;1.83;;
20653;SDS011;21083;50.898;4.902;2023-06-04T09:30:18;6.85;;;1.75;;
20653;SDS011;21083;50.898;4.902;2023-06-04T09:32:45;6.13;;;1.70;;
20653;SDS011;21083;50.898;4.902;2023-06-04T09:35:14;7.78;;;1.80;;
20653;SDS011;21083;50.898;4.902;2023-06-04T09:37:43;6.18;;;1.88;;
20653;SDS011;21083;50.898;4.902;2023-06-04T09:40:18;11.75;;;1.88;;
20653;SDS011;21083;50.898;4.902;2023-06-04T09:42:46;12.45;;;2.10;;
20653;SDS011;21083;50.898;4.902;2023-06-04T09:45:26;9.02;;;1.90;;
20653;SDS011;21083;50.898;4.902;2023-06-04T09:47:54;10.20;;;2.13;;
20653;SDS011;21083;50.898;4.902;2023-06-04T09:50:26;9.02;;;1.70;;
20653;SDS011;21083;50.898;4.902;2023-06-04T09:52:54;6.32;;;1.95;;
20653;SDS011;21083;50.898;4.902;2023-06-04T09:55:21;6.63;;;1.70;;
20653;SDS011;21083;50.898;4.902;2023-06-04T09:57:50;8.52;;;1.77;;
20653;SDS011;21083;50.898;4.902;2023-06-04T10:00:18;5.95;;;1.73;;
20653;SDS011;21083;50.898;4.902;2023-06-04T10:02:47;11.30;;;1.77;;
20653;SDS011;21083;50.898;4.902;2023-06-04T10:05:15;5.97;;;1.75;;
20653;SDS011;21083;50.898;4.902;2023-06-04T10:07:47;6.70;;;1.65;;
20653;SDS011;21083;50.898;4.902;2023-06-04T10:10:18;4.88;;;1.60;;
20653;SDS011;21083;50.898;4.902;2023-06-04T10:12:48;5.53;;;1.30;;
20653;SDS011;21083;50.898;4.902;2023-06-04T10:15:17;6.65;;;1.83;;
20653;SDS011;21083;50.898;4.902;2023-06-04T10:17:46;7.32;;;1.98;;
20653;SDS011;21083;50.898;4.902;2023-06-04T10:20:14;4.65;;;1.50;;
20653;SDS011;21083;50.898;4.902;2023-06-04T10:22:43;7.35;;;1.92;;
20653;SDS011;21083;50.898;4.902;2023-06-04T10:25:11;5.47;;;1.67;;
20653;SDS011;21083;50.898;4.902;2023-06-04T10:27:39;8.60;;;1.63;;
20653;SDS011;21083;50.898;4.902;2023-06-04T10:30:06;7.60;;;1.90;;
20653;SDS011;21083;50.898;4.902;2023-06-04T10:32:35;5.75;;;1.48;;
20653;SDS011;21083;50.898;4.902;2023-06-04T10:35:03;10.23;;;2.00;;
20653;SDS011;21083;50.898;4.902;2023-06-04T10:37:32;3.72;;;1.20;;
20653;SDS011;21083;50.898;4.902;2023-06-04T10:40:00;6.65;;;1.63;;
20653;SDS011;21083;50.898;4.902;2023-06-04T10:42:38;11.25;;;1.67;;
20653;SDS011;21083;50.898;4.902;2023-06-04T10:45:07;6.85;;;1.58;;
20653;SDS011;21083;50.898;4.902;2023-06-04T10:47:35;9.38;;;1.67;;
20653;SDS011;21083;50.898;4.902;2023-06-04T10:50:09;8.40;;;2.13;;
20653;SDS011;21083;50.898;4.902;2023-06-04T10:52:37;4.90;;;1.65;;
20653;SDS011;21083;50.898;4.902;2023-06-04T10:55:05;5.75;;;1.80;;
20653;SDS011;21083;50.898;4.902;2023-06-04T10:57:33;6.00;;;1.60;;
20653;SDS011;21083;50.898;4.902;2023-06-04T11:00:02;5.90;;;1.90;;
20653;SDS011;21083;50.898;4.902;2023-06-04T11:02:31;5.43;;;1.50;;
20653;SDS011;21083;50.898;4.902;2023-06-04T11:04:58;8.35;;;2.00;;
20653;SDS011;21083;50.898;4.902;2023-06-04T11:07:28;5.70;;;1.67;;
20653;SDS011;21083;50.898;4.902;2023-06-04T11:09:55;8.70;;;1.77;;
20653;SDS011;21083;50.898;4.902;2023-06-04T11:12:22;7.38;;;2.03;;
20653;SDS011;21083;50.898;4.902;2023-06-04T11:14:55;5.28;;;1.65;;
20653;SDS011;21083;50.898;4.902;2023-06-04T11:17:23;7.53;;;1.85;;
20653;SDS011;21083;50.898;4.902;2023-06-04T11:19:50;5.72;;;1.70;;
20653;SDS011;21083;50.898;4.902;2023-06-04T11:22:20;4.72;;;1.52;;
20653;SDS011;21083;50.898;4.902;2023-06-04T11:24:47;7.10;;;1.95;;
20653;SDS011;21083;50.898;4.902;2023-06-04T11:27:14;10.18;;;1.80;;
20653;SDS011;21083;50.898;4.902;2023-06-04T11:29:41;5.93;;;1.73;;
20653;SDS011;21083;50.898;4.902;2023-06-04T11:32:08;7.28;;;2.28;;
20653;SDS011;21083;50.898;4.902;2023-06-04T11:34:36;4.50;;;1.73;;
20653;SDS011;21083;50.898;4.902;2023-06-04T11:37:09;4.45;;;1.80;;
20653;SDS011;21083;50.898;4.902;2023-06-04T11:39:37;9.23;;;1.90;;
20653;SDS011;21083;50.898;4.902;2023-06-04T11:42:05;4.63;;;1.73;;
20653;SDS011;21083;50.898;4.902;2023-06-04T11:44:33;7.63;;;1.80;;
20653;SDS011;21083;50.898;4.902;2023-06-04T11:47:00;6.55;;;1.85;;
20653;SDS011;21083;50.898;4.902;2023-06-04T11:49:30;7.53;;;1.73;;
20653;SDS011;21083;50.898;4.902;2023-06-04T11:51:59;7.65;;;2.00;;
20653;SDS011;21083;50.898;4.902;2023-06-04T11:54:26;6.53;;;2.08;;
20653;SDS011;21083;50.898;4.902;2023-06-04T11:56:53;5.15;;;1.60;;
20653;SDS011;21083;50.898;4.902;2023-06-04T11:59:21;6.20;;;1.65;;
20653;SDS011;21083;50.898;4.902;2023-06-04T12:01:48;5.43;;;1.65;;
20653;SDS011;21083;50.898;4.902;2023-06-04T12:04:16;6.90;;;1.80;;
20653;SDS011;21083;50.898;4.902;2023-06-04T12:06:53;5.50;;;1.50;;
20653;SDS011;21083;50.898;4.902;2023-06-04T12:09:23;6.72;;;1.77;;
20653;SDS011;21083;50.898;4.902;2023-06-04T12:11:57;6.78;;;1.90;;
20653;SDS011;21083;50.898;4.902;2023-06-04T12:14:24;6.22;;;1.77;;
20653;SDS011;21083;50.898;4.902;2023-06-04T12:16:54;8.18;;;1.80;;
20653;SDS011;21083;50.898;4.902;2023-06-04T12:19:21;6.15;;;1.83;;
20653;SDS011;21083;50.898;4.902;2023-06-04T12:21:58;7.35;;;1.80;;
20653;SDS011;21083;50.898;4.902;2023-06-04T12:24:28;8.13;;;2.15;;
20653;SDS011;21083;50.898;4.902;2023-06-04T12:27:02;11.90;;;2.67;;
20653;SDS011;21083;50.898;4.902;2023-06-04T12:29:29;4.63;;;2.00;;
20653;SDS011;21083;50.898;4.902;2023-06-04T12:32:02;6.63;;;1.88;;
20653;SDS011;21083;50.898;4.902;2023-06-04T12:34:32;8.02;;;2.22;;
20653;SDS011;21083;50.898;4.902;2023-06-04T12:37:00;9.32;;;2.42;;
20653;SDS011;21083;50.898;4.902;2023-06-04T12:39:29;8.25;;;2.08;;
20653;SDS011;21083;50.898;4.902;2023-06-04T12:41:56;5.15;;;1.90;;
20653;SDS011;21083;50.898;4.902;2023-06-04T12:44:23;8.23;;;2.03;;
20653;SDS011;21083;50.898;4.902;2023-06-04T12:46:50;12.88;;;2.13;;
20653;SDS011;21083;50.898;4.902;2023-06-04T12:49:17;15.23;;;2.38;;
20653;SDS011;21083;50.898;4.902;2023-06-04T12:51:44;5.28;;;2.10;;
20653;SDS011;21083;50.898;4.902;2023-06-04T12:54:11;9.43;;;1.83;;
20653;SDS011;21083;50.898;4.902;2023-06-04T12:56:40;4.57;;;1.60;;
20653;SDS011;21083;50.898;4.902;2023-06-04T12:59:10;7.70;;;1.52;;
20653;SDS011;21083;50.898;4.902;2023-06-04T13:01:37;7.20;;;2.08;;
20653;SDS011;21083;50.898;4.902;2023-06-04T13:04:04;4.82;;;1.77;;
20653;SDS011;21083;50.898;4.902;2023-06-04T13:06:31;6.40;;;1.30;;
20653;SDS011;21083;50.898;4.902;2023-06-04T13:09:00;11.07;;;1.70;;
20653;SDS011;21083;50.898;4.902;2023-06-04T13:11:28;6.45;;;2.13;;
20653;SDS011;21083;50.898;4.902;2023-06-04T13:13:56;6.85;;;1.80;;
20653;SDS011;21083;50.898;4.902;2023-06-04T13:16:23;7.38;;;2.03;;
20653;SDS011;21083;50.898;4.902;2023-06-04T13:18:50;6.80;;;2.05;;
20653;SDS011;21083;50.898;4.902;2023-06-04T13:21:17;4.03;;;1.60;;
20653;SDS011;21083;50.898;4.902;2023-06-04T13:23:44;7.10;;;2.00;;
20653;SDS011;21083;50.898;4.902;2023-06-04T13:26:11;7.82;;;1.73;;
20653;SDS011;21083;50.898;4.902;2023-06-04T13:28:38;14.27;;;1.98;;
20653;SDS011;21083;50.898;4.902;2023-06-04T13:31:06;5.68;;;1.77;;
20653;SDS011;21083;50.898;4.902;2023-06-04T13:33:33;3.50;;;1.50;;
20653;SDS011;21083;50.898;4.902;2023-06-04T13:36:00;6.47;;;1.67;;
20653;SDS011;21083;50.898;4.902;2023-06-04T13:38:28;8.10;;;1.95;;
20653;SDS011;21083;50.898;4.902;2023-06-04T13:40:55;4.93;;;1.60;;
20653;SDS011;21083;50.898;4.902;2023-06-04T13:43:22;6.35;;;1.60;;
20653;SDS011;21083;50.898;4.902;2023-06-04T13:45:48;4.90;;;1.42;;
20653;SDS011;21083;50.898;4.902;2023-06-04T13:48:19;4.97;;;1.40;;
20653;SDS011;21083;50.898;4.902;2023-06-04T13:50:47;5.75;;;1.42;;
20653;SDS011;21083;50.898;4.902;2023-06-04T13:53:14;5.25;;;1.42;;
20653;SDS011;21083;50.898;4.902;2023-06-04T13:55:41;4.97;;;1.58;;
20653;SDS011;21083;50.898;4.902;2023-06-04T13:58:07;8.80;;;1.80;;
20653;SDS011;21083;50.898;4.902;2023-06-04T14:00:35;5.50;;;1.60;;
20653;SDS011;21083;50.898;4.902;2023-06-04T14:03:02;3.97;;;1.52;;
20653;SDS011;21083;50.898;4.902;2023-06-04T14:05:30;3.35;;;1.23;;
20653;SDS011;21083;50.898;4.902;2023-06-04T14:07:57;4.15;;;1.50;;
20653;SDS011;21083;50.898;4.902;2023-06-04T14:10:24;9.05;;;1.80;;
20653;SDS011;21083;50.898;4.902;2023-06-04T14:12:50;4.53;;;1.40;;
20653;SDS011;21083;50.898;4.902;2023-06-04T14:15:17;3.83;;;1.35;;
20653;SDS011;21083;50.898;4.902;2023-06-04T14:17:44;4.53;;;1.60;;
20653;SDS011;21083;50.898;4.902;2023-06-04T14:20:12;5.38;;;1.73;;
20653;SDS011;21083;50.898;4.902;2023-06-04T14:22:40;7.25;;;1.70;;
20653;SDS011;21083;50.898;4.902;2023-06-04T14:25:07;6.10;;;1.73;;
20653;SDS011;21083;50.898;4.902;2023-06-04T14:27:35;4.95;;;1.60;;
20653;SDS011;21083;50.898;4.902;2023-06-04T14:30:02;7.50;;;1.55;;
20653;SDS011;21083;50.898;4.902;2023-06-04T14:32:30;4.82;;;1.63;;
20653;SDS011;21083;50.898;4.902;2023-06-04T14:34:58;4.40;;;1.13;;
20653;SDS011;21083;50.898;4.902;2023-06-04T14:37:25;7.63;;;1.40;;
20653;SDS011;21083;50.898;4.902;2023-06-04T14:39:53;6.93;;;1.60;;
20653;SDS011;21083;50.898;4.902;2023-06-04T14:42:20;6.07;;;1.58;;
20653;SDS011;21083;50.898;4.902;2023-06-04T14:44:47;3.92;;;1.45;;
20653;SDS011;21083;50.898;4.902;2023-06-04T14:47:14;4.35;;;1.40;;
20653;SDS011;21083;50.898;4.902;2023-06-04T14:49:41;5.28;;;1.48;;
20653;SDS011;21083;50.898;4.902;2023-06-04T14:52:08;3.70;;;1.38;;